Alderpoint, California
Current Conditions -  °F | °C
As of 11:10 AM on Thursday 23 Oct 2014 (Local Time) from KFOT Reporting Station
Broken Clouds Broken Clouds  
Wind Chill: 59°   Ceiling: 2500
Heat Index: 59°   Visibility: 10mi
Dew Point: 59°   Wind: 3mph
Humidity: 100%   Direction: 130°SE
Pressure: 30.01"   Gusts: NA
Location:  40.18°N, 123.61°W
Report Text: KFOT 231810Z AUTO 13003KT 10SM FEW004 SCT014 BKN025 15/15 A3001 RMK AO1
Loading
Personal Weather Stations






























Interactive Weather Map
Tropical Storm Tracking
New forecast layout! Learn more

10-Day Weather Forecast

Advertisements
Track Severe Weather on mobile